Time,TemperatureF,DewpointF,PressureIn,WindDirection,WindDirectionDegrees,WindSpeedMPH,WindSpeedGustMPH,Humidity,HourlyPrecipIn,Conditions,Clouds,dailyrainin,SoftwareType,DateUTC
2013-01-24 00:01:00,7.9,-0.2,0.00,West,263,4.6,4.6,69,0.00,CLR,CLR,0.00,WeatherDisplay:10.37,2013-01-24 05:01:00,
2013-01-24 00:03:00,7.9,-0.2,0.00,West,271,4.6,4.6,69,0.00,CLR,CLR,0.00,WeatherDisplay:10.37,2013-01-24 05:03:00,
2013-01-24 00:05:00,7.9,0.1,0.00,WSW,240,0.0,0.0,70,0.00,CLR,CLR,0.00,WeatherDisplay:10.37,2013-01-24 05:05:00,
2013-01-24 00:10:00,7.8,-0.3,0.00,WSW,250,4.6,4.6,69,0.00,CLR,CLR,0.00,WeatherDisplay:10.37,2013-01-24 05:10:00,
2013-01-24 00:15:00,7.9,-0.2,0.00,SW,222,4.6,4.6,69,0.00,CLR,CLR,0.00,WeatherDisplay:10.37,2013-01-24 05:15:00,
2013-01-24 00:20:00,7.8,-0.3,0.00,West,278,2.3,2.3,69,0.00,CLR,CLR,0.00,WeatherDisplay:10.37,2013-01-24 05:20:00,
2013-01-24 00:26:00,7.9,0.1,0.00,West,271,1.2,1.2,70,0.00,CLR,CLR,0.00,WeatherDisplay:10.37,2013-01-24 05:26:00,
2013-01-24 00:31:00,7.8,0.0,0.00,West,271,0.0,0.0,70,0.00,CLR,CLR,0.00,WeatherDisplay:10.37,2013-01-24 05:31:00,
2013-01-24 00:36:00,7.7,-0.1,0.00,West,271,0.0,0.0,70,0.00,CLR,CLR,0.00,WeatherDisplay:10.37,2013-01-24 05:36:00,
2013-01-24 00:41:00,7.7,-0.1,0.00,WSW,244,4.6,4.6,70,0.00,CLR,CLR,0.00,WeatherDisplay:10.37,2013-01-24 05:41:00,
2013-01-24 00:47:00,7.5,-0.2,0.00,WSW,241,4.6,4.6,70,0.00,CLR,CLR,0.00,WeatherDisplay:10.37,2013-01-24 05:47:00,
2013-01-24 00:52:00,7.5,-0.2,0.00,WSW,256,3.5,3.5,70,0.00,CLR,CLR,0.00,WeatherDisplay:10.37,2013-01-24 05:52:00,
2013-01-24 00:57:00,7.4,-0.3,0.00,WSW,256,1.2,1.2,70,0.00,CLR,CLR,0.00,WeatherDisplay:10.37,2013-01-24 05:57:00,
2013-01-24 01:02:00,7.3,-0.4,0.00,WSW,254,6.9,6.9,70,0.00,CLR,CLR,0.00,WeatherDisplay:10.37,2013-01-24 06:02:00,
2013-01-24 01:07:00,7.3,-0.4,0.00,SSW,199,4.6,4.6,70,0.00,CLR,CLR,0.00,WeatherDisplay:10.37,2013-01-24 06:07:00,
2013-01-24 01:12:00,7.2,-0.2,0.00,SW,236,3.5,3.5,71,0.00,CLR,CLR,0.00,WeatherDisplay:10.37,2013-01-24 06:12:00,
2013-01-24 01:18:00,7.3,-0.1,0.00,SW,229,2.3,2.3,71,0.00,CLR,CLR,0.00,WeatherDisplay:10.37,2013-01-24 06:18:00,
2013-01-24 01:23:00,7.3,-0.1,0.00,WSW,247,3.5,3.5,71,0.00,CLR,CLR,0.00,WeatherDisplay:10.37,2013-01-24 06:23:00,
2013-01-24 01:28:00,7.3,-0.1,0.00,SW,229,2.3,2.3,71,0.00,CLR,CLR,0.00,WeatherDisplay:10.37,2013-01-24 06:28:00,
2013-01-24 01:34:00,7.3,-0.1,0.00,SSW,199,3.5,0.0,71,0.00,CLR,CLR,0.00,WeatherDisplay:10.37,2013-01-24 06:34:00,
2013-01-24 01:39:00,7.2,-0.2,0.00,West,263,0.0,0.0,71,0.00,CLR,CLR,0.00,WeatherDisplay:10.37,2013-01-24 06:39:00,
2013-01-24 01:44:00,7.2,0.1,0.00,West,261,5.8,5.8,72,0.00,CLR,CLR,0.00,WeatherDisplay:10.37,2013-01-24 06:44:00,
2013-01-24 01:49:00,7.2,0.1,0.00,West,267,5.8,5.8,72,0.00,CLR,CLR,0.00,WeatherDisplay:10.37,2013-01-24 06:49:00,
2013-01-24 01:54:00,7.1,0.0,0.00,West,274,6.9,6.9,72,0.00,CLR,CLR,0.00,WeatherDisplay:10.37,2013-01-24 06:54:00,
2013-01-24 02:00:00,7.0,-0.1,0.00,SSW,200,5.8,5.8,72,0.00,CLR,CLR,0.00,WeatherDisplay:10.37,2013-01-24 07:00:00,
2013-01-24 02:05:00,7.0,-0.1,0.00,ESE,121,8.1,8.1,72,0.00,CLR,CLR,0.00,WeatherDisplay:10.37,2013-01-24 07:05:00,
2013-01-24 02:10:00,7.0,-0.1,0.00,WSW,257,5.8,5.8,72,0.00,CLR,CLR,0.00,WeatherDisplay:10.37,2013-01-24 07:10:00,
2013-01-24 02:15:00,7.0,-0.1,0.00,NNE,27,2.3,2.3,72,0.00,CLR,CLR,0.00,WeatherDisplay:10.37,2013-01-24 07:15:00,
2013-01-24 02:20:00,6.9,-0.2,0.00,WSW,248,5.8,5.8,72,0.00,CLR,CLR,0.00,WeatherDisplay:10.37,2013-01-24 07:20:00,
2013-01-24 02:26:00,6.9,-0.2,0.00,SW,223,3.5,3.5,72,0.00,CLR,CLR,0.00,WeatherDisplay:10.37,2013-01-24 07:26:00,
2013-01-24 02:31:00,6.9,-0.2,0.00,SW,226,1.2,0.0,72,0.00,CLR,CLR,0.00,WeatherDisplay:10.37,2013-01-24 07:31:00,
2013-01-24 02:36:00,6.8,-0.3,0.00,WSW,257,2.4,2.4,72,0.00,CLR,CLR,0.00,WeatherDisplay:10.37,2013-01-24 07:36:00,
2013-01-24 02:41:00,6.9,-0.2,0.00,SSW,210,2.3,2.3,72,0.00,CLR,CLR,0.00,WeatherDisplay:10.37,2013-01-24 07:41:00,
2013-01-24 02:47:00,6.9,-0.2,0.00,WSW,246,3.5,3.5,72,0.00,CLR,CLR,0.00,WeatherDisplay:10.37,2013-01-24 07:47:00,
2013-01-24 02:52:00,6.8,0.0,0.00,SW,224,1.2,0.0,73,0.00,CLR,CLR,0.00,WeatherDisplay:10.37,2013-01-24 07:52:00,
2013-01-24 02:57:00,6.8,0.0,0.00,WSW,256,3.5,3.5,73,0.00,CLR,CLR,0.00,WeatherDisplay:10.37,2013-01-24 07:57:00,
2013-01-24 03:02:00,6.7,-0.1,0.00,WSW,241,0.0,0.0,73,0.00,CLR,CLR,0.00,WeatherDisplay:10.37,2013-01-24 08:02:00,
2013-01-24 03:08:00,6.7,-0.1,0.00,West,278,0.0,0.0,73,0.00,CLR,CLR,0.00,WeatherDisplay:10.37,2013-01-24 08:08:00,
2013-01-24 03:13:00,6.5,-0.6,0.00,West,270,0.0,0.0,72,0.00,CLR,CLR,0.00,WeatherDisplay:10.37,2013-01-24 08:13:00,
2013-01-24 03:18:00,6.4,-0.4,0.00,West,270,0.0,0.0,73,0.00,CLR,CLR,0.00,WeatherDisplay:10.37,2013-01-24 08:18:00,
2013-01-24 03:23:00,6.4,-0.4,0.00,West,270,0.0,0.0,73,0.00,CLR,CLR,0.00,WeatherDisplay:10.37,2013-01-24 08:23:00,
2013-01-24 03:28:00,6.4,-0.4,0.00,West,270,0.0,0.0,73,0.00,CLR,CLR,0.00,WeatherDisplay:10.37,2013-01-24 08:28:00,
2013-01-24 03:34:00,6.4,-0.1,0.00,West,270,0.0,0.0,74,0.00,CLR,CLR,0.00,WeatherDisplay:10.37,2013-01-24 08:34:00,
2013-01-24 03:39:00,6.4,-0.1,0.00,West,270,0.0,0.0,74,0.00,CLR,CLR,0.00,WeatherDisplay:10.37,2013-01-24 08:39:00,
2013-01-24 03:44:00,6.5,0.0,0.00,West,270,0.0,0.0,74,0.00,CLR,CLR,0.00,WeatherDisplay:10.37,2013-01-24 08:44:00,
2013-01-24 03:49:00,6.5,0.0,0.00,West,270,0.0,0.0,74,0.00,CLR,CLR,0.00,WeatherDisplay:10.37,2013-01-24 08:49:00,
2013-01-24 03:55:00,6.5,0.0,0.00,West,270,0.0,0.0,74,0.00,CLR,CLR,0.00,WeatherDisplay:10.37,2013-01-24 08:55:00,
2013-01-24 04:00:00,6.5,0.3,0.00,West,270,0.0,0.0,75,0.00,CLR,CLR,0.00,WeatherDisplay:10.37,2013-01-24 09:00:00,
2013-01-24 04:05:00,6.4,0.2,0.00,SSW,213,1.2,1.2,75,0.00,CLR,CLR,0.00,WeatherDisplay:10.37,2013-01-24 09:05:00,
2013-01-24 04:10:00,6.4,0.2,0.00,SSW,213,0.0,0.0,75,0.00,CLR,CLR,0.00,WeatherDisplay:10.37,2013-01-24 09:10:00,
2013-01-24 04:16:00,6.3,-0.2,0.00,West,275,2.3,2.3,74,0.00,CLR,CLR,0.00,WeatherDisplay:10.37,2013-01-24 09:16:00,
2013-01-24 04:21:00,6.2,-0.3,0.00,West,264,4.6,4.6,74,0.00,CLR,CLR,0.00,WeatherDisplay:10.37,2013-01-24 09:21:00,
2013-01-24 04:26:00,6.0,-0.5,0.00,West,271,6.9,6.9,74,0.00,CLR,CLR,0.00,WeatherDisplay:10.37,2013-01-24 09:26:00,
2013-01-24 04:31:00,5.8,-0.7,0.00,WSW,251,4.6,4.6,74,0.00,CLR,CLR,0.00,WeatherDisplay:10.37,2013-01-24 09:31:00,
2013-01-24 04:36:00,5.7,-0.8,0.00,WNW,292,4.6,4.6,74,0.00,CLR,CLR,0.00,WeatherDisplay:10.37,2013-01-24 09:36:00,
2013-01-24 04:41:00,5.6,-0.9,0.00,SSW,213,9.4,9.4,74,0.00,CLR,CLR,0.00,WeatherDisplay:10.37,2013-01-24 09:41:00,
2013-01-24 04:47:00,5.5,-1.0,0.00,WSW,257,6.9,6.9,74,0.00,CLR,CLR,0.00,WeatherDisplay:10.37,2013-01-24 09:47:00,
2013-01-24 04:52:00,5.4,-1.1,0.00,West,261,4.6,4.6,74,0.00,CLR,CLR,0.00,WeatherDisplay:10.37,2013-01-24 09:52:00,
2013-01-24 04:57:00,5.3,-1.2,0.00,West,265,3.5,3.5,74,0.00,CLR,CLR,0.00,WeatherDisplay:10.37,2013-01-24 09:57:00,
2013-01-24 05:02:00,5.4,-1.1,0.00,West,270,2.5,2.5,74,0.00,CLR,CLR,0.00,WeatherDisplay:10.37,2013-01-24 10:02:00,
2013-01-24 05:07:00,5.4,-1.1,0.00,West,281,4.6,4.6,74,0.00,CLR,CLR,0.00,WeatherDisplay:10.37,2013-01-24 10:07:00,
2013-01-24 05:13:00,5.3,-0.9,0.00,West,268,2.3,2.3,75,0.00,CLR,CLR,0.00,WeatherDisplay:10.37,2013-01-24 10:13:00,
2013-01-24 05:18:00,5.2,-1.0,0.00,WSW,241,4.6,4.6,75,0.00,CLR,CLR,0.00,WeatherDisplay:10.37,2013-01-24 10:18:00,
2013-01-24 05:23:00,5.1,-1.1,0.00,West,265,3.5,3.5,75,0.00,CLR,CLR,0.00,WeatherDisplay:10.37,2013-01-24 10:23:00,
2013-01-24 05:28:00,5.1,-1.1,0.00,WSW,250,4.6,4.6,75,0.00,CLR,CLR,0.00,WeatherDisplay:10.37,2013-01-24 10:28:00,
2013-01-24 05:33:00,5.1,-0.8,0.00,WSW,258,3.5,3.5,76,0.00,CLR,CLR,0.00,WeatherDisplay:10.37,2013-01-24 10:33:00,
2013-01-24 05:39:00,5.0,-0.9,0.00,SW,230,0.0,0.0,76,0.00,CLR,CLR,0.00,WeatherDisplay:10.37,2013-01-24 10:39:00,
2013-01-24 05:44:00,5.1,-0.8,0.00,WSW,253,3.6,3.6,76,0.00,CLR,CLR,0.00,WeatherDisplay:10.37,2013-01-24 10:44:00,
2013-01-24 05:50:00,5.0,-0.9,0.00,West,263,3.5,3.5,76,0.00,CLR,CLR,0.00,WeatherDisplay:10.37,2013-01-24 10:50:00,
2013-01-24 05:55:00,4.9,-1.0,0.00,SSW,212,4.6,4.6,76,0.00,CLR,CLR,0.00,WeatherDisplay:10.37,2013-01-24 10:55:00,
2013-01-24 06:00:00,4.9,-1.0,0.00,WSW,248,4.6,4.6,76,0.00,CLR,CLR,0.00,WeatherDisplay:10.37,2013-01-24 11:00:00,
2013-01-24 06:05:00,4.9,-1.0,0.00,WSW,257,5.8,5.8,76,0.00,CLR,CLR,0.00,WeatherDisplay:10.37,2013-01-24 11:05:00,
2013-01-24 06:10:00,4.6,-1.3,0.00,WSW,253,5.8,5.8,76,0.00,CLR,CLR,0.00,WeatherDisplay:10.37,2013-01-24 11:10:00,
2013-01-24 06:16:00,4.5,-1.4,0.00,WNW,301,2.3,2.3,76,0.00,CLR,CLR,0.00,WeatherDisplay:10.37,2013-01-24 11:16:00,
2013-01-24 06:21:00,4.4,-1.5,0.00,SW,232,1.2,1.2,76,0.00,CLR,CLR,0.00,WeatherDisplay:10.37,2013-01-24 11:21:00,
2013-01-24 06:26:00,4.5,-1.1,0.00,WSW,256,4.6,4.6,77,0.00,CLR,CLR,0.00,WeatherDisplay:10.37,2013-01-24 11:26:00,
2013-01-24 06:31:00,4.4,-1.2,0.00,WSW,256,4.6,4.6,77,0.00,CLR,CLR,0.00,WeatherDisplay:10.37,2013-01-24 11:31:00,
2013-01-24 06:36:00,4.3,-1.0,0.00,SW,234,4.6,4.6,78,0.00,CLR,CLR,0.00,WeatherDisplay:10.37,2013-01-24 11:36:00,
2013-01-24 06:42:00,4.3,-1.0,0.00,WSW,256,6.9,6.9,78,0.00,CLR,CLR,0.00,WeatherDisplay:10.37,2013-01-24 11:42:00,
2013-01-24 06:47:00,4.4,-0.9,0.00,West,260,5.8,5.8,78,0.00,CLR,CLR,0.00,WeatherDisplay:10.37,2013-01-24 11:47:00,
2013-01-24 06:52:00,4.3,-1.0,0.00,WSW,258,2.3,2.3,78,0.00,CLR,CLR,0.00,WeatherDisplay:10.37,2013-01-24 11:52:00,
2013-01-24 06:57:00,4.3,-1.0,0.00,West,265,5.8,5.8,78,0.00,CLR,CLR,0.00,WeatherDisplay:10.37,2013-01-24 11:57:00,
2013-01-24 07:03:00,4.2,-1.1,0.00,WSW,250,4.9,4.9,78,0.00,CLR,CLR,0.00,WeatherDisplay:10.37,2013-01-24 12:03:00,
2013-01-24 07:08:00,4.0,-1.3,0.00,WSW,254,6.0,6.0,78,0.00,CLR,CLR,0.00,WeatherDisplay:10.37,2013-01-24 12:08:00,
2013-01-24 07:13:00,4.0,-1.6,0.00,WNW,289,8.1,8.1,77,0.00,CLR,CLR,0.00,WeatherDisplay:10.37,2013-01-24 12:13:00,
2013-01-24 07:18:00,3.9,-1.4,0.00,WSW,258,1.2,1.2,78,0.00,CLR,CLR,0.00,WeatherDisplay:10.37,2013-01-24 12:18:00,
2013-01-24 07:24:00,4.0,-1.3,0.00,WSW,254,4.6,4.6,78,0.00,CLR,CLR,0.00,WeatherDisplay:10.37,2013-01-24 12:24:00,
2013-01-24 07:29:00,4.0,-1.6,0.00,West,270,5.8,5.8,77,0.00,CLR,CLR,0.00,WeatherDisplay:10.37,2013-01-24 12:29:00,
2013-01-24 07:34:00,3.9,-1.4,0.00,WNW,285,5.8,5.8,78,0.00,CLR,CLR,0.00,WeatherDisplay:10.37,2013-01-24 12:34:00,
2013-01-24 07:39:00,3.9,-1.7,0.00,WSW,240,4.6,4.6,77,0.00,CLR,CLR,0.00,WeatherDisplay:10.37,2013-01-24 12:39:00,
2013-01-24 07:44:00,4.0,-1.3,0.00,North,352,4.6,4.6,78,0.00,CLR,CLR,0.00,WeatherDisplay:10.37,2013-01-24 12:44:00,
2013-01-24 07:50:00,3.9,-1.4,0.00,West,274,6.9,6.9,78,0.00,CLR,CLR,0.00,WeatherDisplay:10.37,2013-01-24 12:50:00,
2013-01-24 07:55:00,3.9,-1.4,0.00,WSW,251,6.9,6.9,78,0.00,CLR,CLR,0.00,WeatherDisplay:10.37,2013-01-24 12:55:00,
2013-01-24 08:00:00,4.0,-1.6,0.00,West,277,8.1,8.1,77,0.00,CLR,CLR,0.00,WeatherDisplay:10.37,2013-01-24 13:00:00,
2013-01-24 08:05:00,4.0,-1.3,0.00,WSW,254,5.8,5.8,78,0.00,CLR,CLR,0.00,WeatherDisplay:10.37,2013-01-24 13:05:00,
2013-01-24 08:11:00,4.2,-1.4,0.00,West,280,4.6,4.6,77,0.00,CLR,CLR,0.00,WeatherDisplay:10.37,2013-01-24 13:11:00,
2013-01-24 08:16:00,4.2,-1.4,0.00,South,179,6.9,6.9,77,0.00,CLR,CLR,0.00,WeatherDisplay:10.37,2013-01-24 13:16:00,
2013-01-24 08:21:00,4.3,-1.3,0.00,WSW,257,10.4,10.4,77,0.00,CLR,CLR,0.00,WeatherDisplay:10.37,2013-01-24 13:21:00,
2013-01-24 08:26:00,4.4,-1.2,0.00,SW,234,11.5,11.5,77,0.00,CLR,CLR,0.00,WeatherDisplay:10.37,2013-01-24 13:26:00,
2013-01-24 08:31:00,4.5,-1.1,0.00,West,264,9.2,9.2,77,0.00,CLR,CLR,0.00,WeatherDisplay:10.37,2013-01-24 13:31:00,
2013-01-24 08:37:00,4.7,-1.2,0.00,West,274,10.4,10.4,76,0.00,CLR,CLR,0.00,WeatherDisplay:10.37,2013-01-24 13:37:00,
2013-01-24 08:42:00,4.8,-1.1,0.00,NW,319,6.9,6.9,76,0.00,CLR,CLR,0.00,WeatherDisplay:10.37,2013-01-24 13:42:00,
2013-01-24 08:47:00,5.0,-0.9,0.00,WNW,298,9.2,9.2,76,0.00,CLR,CLR,0.00,WeatherDisplay:10.37,2013-01-24 13:47:00,
2013-01-24 08:52:00,5.2,-0.7,0.00,West,264,13.8,13.8,76,0.00,CLR,CLR,0.00,WeatherDisplay:10.37,2013-01-24 13:52:00,
2013-01-24 08:57:00,5.4,-0.5,0.00,SW,223,11.5,11.5,76,0.00,CLR,CLR,0.00,WeatherDisplay:10.37,2013-01-24 13:57:00,
2013-01-24 09:02:00,5.5,-0.7,0.00,West,278,9.2,9.2,75,0.00,CLR,CLR,0.00,WeatherDisplay:10.37,2013-01-24 14:02:00,
2013-01-24 09:08:00,5.7,-0.5,0.00,NW,304,13.8,13.8,75,0.00,CLR,CLR,0.00,WeatherDisplay:10.37,2013-01-24 14:08:00,
2013-01-24 09:13:00,5.9,-0.3,0.00,West,274,9.2,9.2,75,0.00,CLR,CLR,0.00,WeatherDisplay:10.37,2013-01-24 14:13:00,
2013-01-24 09:18:00,6.1,-0.4,0.00,WNW,288,10.4,10.4,74,0.00,CLR,CLR,0.00,WeatherDisplay:10.37,2013-01-24 14:18:00,
2013-01-24 09:23:00,6.3,-0.2,0.00,WNW,298,9.7,9.7,74,0.00,CLR,CLR,0.00,WeatherDisplay:10.37,2013-01-24 14:23:00,
2013-01-24 09:29:00,6.5,0.0,0.00,WSW,254,13.1,13.1,74,0.00,CLR,CLR,0.00,WeatherDisplay:10.37,2013-01-24 14:29:00,
2013-01-24 09:34:00,6.7,-0.1,0.00,West,265,10.4,10.4,73,0.00,CLR,CLR,0.00,WeatherDisplay:10.37,2013-01-24 14:34:00,
2013-01-24 09:40:00,7.0,0.2,0.00,West,261,11.5,11.5,73,0.00,CLR,CLR,0.00,WeatherDisplay:10.37,2013-01-24 14:40:00,
2013-01-24 09:45:00,7.2,0.1,0.00,West,278,15.0,15.0,72,0.00,CLR,CLR,0.00,WeatherDisplay:10.37,2013-01-24 14:45:00,
2013-01-24 09:50:00,7.3,0.2,0.00,West,265,8.0,8.0,72,0.00,CLR,CLR,0.00,WeatherDisplay:10.37,2013-01-24 14:50:00,
2013-01-24 09:55:00,7.5,0.4,0.00,West,278,16.1,16.1,72,0.00,CLR,CLR,0.00,WeatherDisplay:10.37,2013-01-24 14:55:00,
2013-01-24 10:00:00,7.7,0.2,0.00,SW,232,16.1,16.1,71,0.00,CLR,CLR,0.00,WeatherDisplay:10.37,2013-01-24 15:00:00,
2013-01-24 10:05:00,7.9,0.1,0.00,West,264,11.5,11.5,70,0.00,CLR,CLR,0.00,WeatherDisplay:10.37,2013-01-24 15:05:00,
2013-01-24 10:10:00,8.1,0.3,0.00,NNW,336,17.3,17.3,70,0.00,CLR,CLR,0.00,WeatherDisplay:10.37,2013-01-24 15:10:00,
2013-01-24 10:16:00,8.3,0.5,0.00,NW,305,11.1,11.1,70,0.00,CLR,CLR,0.00,WeatherDisplay:10.37,2013-01-24 15:16:00,
2013-01-24 10:21:00,8.5,0.7,0.00,WNW,287,9.6,9.6,70,0.00,CLR,CLR,0.00,WeatherDisplay:10.37,2013-01-24 15:21:00,
2013-01-24 10:26:00,8.8,0.7,0.00,NW,311,9.2,9.2,69,0.00,CLR,CLR,0.00,WeatherDisplay:10.37,2013-01-24 15:26:00,
2013-01-24 10:31:00,9.0,0.9,0.00,SW,234,14.7,14.7,69,0.00,CLR,CLR,0.00,WeatherDisplay:10.37,2013-01-24 15:31:00,
2013-01-24 10:36:00,9.2,0.8,0.00,WNW,289,12.7,12.7,68,0.00,CLR,CLR,0.00,WeatherDisplay:10.37,2013-01-24 15:36:00,
2013-01-24 10:42:00,9.4,1.0,0.00,NW,306,11.5,11.5,68,0.00,CLR,CLR,0.00,WeatherDisplay:10.37,2013-01-24 15:42:00,
2013-01-24 10:47:00,9.6,1.2,0.00,WNW,299,13.8,13.8,68,0.00,CLR,CLR,0.00,WeatherDisplay:10.37,2013-01-24 15:47:00,
2013-01-24 10:52:00,9.8,1.0,0.00,West,268,9.2,9.2,67,0.00,CLR,CLR,0.00,WeatherDisplay:10.37,2013-01-24 15:52:00,
2013-01-24 10:57:00,10.0,1.2,0.00,WSW,253,11.5,11.5,67,0.00,CLR,CLR,0.00,WeatherDisplay:10.37,2013-01-24 15:57:00,
2013-01-24 11:03:00,10.2,1.4,0.00,NW,305,9.2,9.2,67,0.00,CLR,CLR,0.00,WeatherDisplay:10.37,2013-01-24 16:03:00,
2013-01-24 11:08:00,10.4,1.6,0.00,WNW,301,9.2,9.2,67,0.00,CLR,CLR,0.00,WeatherDisplay:10.37,2013-01-24 16:08:00,
2013-01-24 11:13:00,10.5,1.7,0.00,NW,304,9.2,9.2,67,0.00,CLR,CLR,0.00,WeatherDisplay:10.37,2013-01-24 16:13:00,
2013-01-24 11:18:00,10.7,1.6,0.00,NW,315,12.7,12.7,66,0.00,CLR,CLR,0.00,WeatherDisplay:10.37,2013-01-24 16:18:00,
2013-01-24 11:23:00,10.9,1.8,0.00,WNW,298,10.4,10.4,66,0.00,CLR,CLR,0.00,WeatherDisplay:10.37,2013-01-24 16:23:00,
2013-01-24 11:29:00,11.1,1.9,0.00,SSW,212,15.0,15.0,66,0.00,CLR,CLR,0.00,WeatherDisplay:10.37,2013-01-24 16:29:00,
2013-01-24 11:34:00,11.3,2.1,0.00,NW,304,11.5,11.5,66,0.00,CLR,CLR,0.00,WeatherDisplay:10.37,2013-01-24 16:34:00,
2013-01-24 11:39:00,11.6,2.1,0.00,WNW,282,12.7,12.7,65,0.00,CLR,CLR,0.00,WeatherDisplay:10.37,2013-01-24 16:39:00,
2013-01-24 11:44:00,11.8,2.6,0.00,West,260,12.1,12.1,66,0.00,CLR,CLR,0.00,WeatherDisplay:10.37,2013-01-24 16:44:00,
2013-01-24 11:49:00,11.9,2.4,0.00,NW,323,10.4,10.4,65,0.00,CLR,CLR,0.00,WeatherDisplay:10.37,2013-01-24 16:49:00,
2013-01-24 11:54:00,12.1,2.2,0.00,WSW,248,13.8,13.8,64,0.00,CLR,CLR,0.00,WeatherDisplay:10.37,2013-01-24 16:54:00,
2013-01-24 12:00:00,12.2,2.3,0.00,WNW,302,12.7,12.7,64,0.00,CLR,CLR,0.00,WeatherDisplay:10.37,2013-01-24 17:00:00,
2013-01-24 12:05:00,12.4,2.5,0.00,WNW,288,17.3,17.3,64,0.00,CLR,CLR,0.00,WeatherDisplay:10.37,2013-01-24 17:05:00,
2013-01-24 12:10:00,12.5,2.6,0.00,NW,322,11.5,11.5,64,0.00,CLR,CLR,0.00,WeatherDisplay:10.37,2013-01-24 17:10:00,
2013-01-24 12:15:00,12.8,2.9,0.00,West,268,18.4,18.4,64,0.00,CLR,CLR,0.00,WeatherDisplay:10.37,2013-01-24 17:15:00,
2013-01-24 12:21:00,12.9,3.0,0.00,West,280,17.3,17.3,64,0.00,CLR,CLR,0.00,WeatherDisplay:10.37,2013-01-24 17:21:00,
2013-01-24 12:25:00,13.2,2.9,0.00,West,260,19.6,19.6,63,0.00,CLR,CLR,0.00,WeatherDisplay:10.37,2013-01-24 17:25:00,
2013-01-24 12:31:00,13.4,2.8,0.00,North,10,15.0,15.0,62,0.00,CLR,CLR,0.00,WeatherDisplay:10.37,2013-01-24 17:31:00,
2013-01-24 12:36:00,13.6,3.0,0.00,West,268,17.3,17.3,62,0.00,CLR,CLR,0.00,WeatherDisplay:10.37,2013-01-24 17:36:00,
2013-01-24 12:41:00,13.7,3.1,0.00,WNW,294,13.8,13.8,62,0.00,CLR,CLR,0.00,WeatherDisplay:10.37,2013-01-24 17:41:00,
2013-01-24 12:46:00,13.8,3.2,0.00,WNW,289,12.7,12.7,62,0.00,CLR,CLR,0.00,WeatherDisplay:10.37,2013-01-24 17:46:00,
2013-01-24 12:51:00,14.1,3.5,0.00,WNW,299,11.5,11.5,62,0.00,CLR,CLR,0.00,WeatherDisplay:10.37,2013-01-24 17:51:00,
2013-01-24 12:57:00,14.2,3.6,0.00,WNW,289,10.4,10.4,62,0.00,CLR,CLR,0.00,WeatherDisplay:10.37,2013-01-24 17:57:00,
2013-01-24 13:02:00,14.5,3.8,0.00,WSW,258,17.3,17.3,62,0.00,CLR,CLR,0.00,WeatherDisplay:10.37,2013-01-24 18:02:00,
2013-01-24 13:07:00,14.7,4.0,0.00,WSW,243,14.9,14.9,62,0.00,CLR,CLR,0.00,WeatherDisplay:10.37,2013-01-24 18:07:00,
2013-01-24 13:12:00,15.0,4.0,0.00,WNW,282,13.8,13.8,61,0.00,CLR,CLR,0.00,WeatherDisplay:10.37,2013-01-24 18:12:00,
2013-01-24 13:17:00,15.2,3.8,0.00,West,263,17.3,17.3,60,0.00,CLR,CLR,0.00,WeatherDisplay:10.37,2013-01-24 18:17:00,
2013-01-24 13:22:00,15.3,3.9,0.00,NW,318,19.6,19.6,60,0.00,CLR,CLR,0.00,WeatherDisplay:10.37,2013-01-24 18:22:00,
2013-01-24 13:27:00,15.6,4.2,0.00,WNW,299,15.0,15.0,60,0.00,CLR,CLR,0.00,WeatherDisplay:10.37,2013-01-24 18:27:00,
2013-01-24 13:33:00,15.7,4.3,0.00,NW,309,11.5,11.5,60,0.00,CLR,CLR,0.00,WeatherDisplay:10.37,2013-01-24 18:33:00,
2013-01-24 13:38:00,15.8,4.4,0.00,West,260,13.8,13.8,60,0.00,CLR,CLR,0.00,WeatherDisplay:10.37,2013-01-24 18:38:00,
2013-01-24 13:43:00,16.1,4.3,0.00,WSW,250,19.6,19.6,59,0.00,CLR,CLR,0.00,WeatherDisplay:10.37,2013-01-24 18:43:00,
2013-01-24 13:48:00,16.3,4.5,0.00,NW,320,16.1,16.1,59,0.00,CLR,CLR,0.00,WeatherDisplay:10.37,2013-01-24 18:48:00,
2013-01-24 13:53:00,16.4,4.6,0.00,WSW,247,10.4,10.4,59,0.00,CLR,CLR,0.00,WeatherDisplay:10.37,2013-01-24 18:53:00,
2013-01-24 13:58:00,16.5,4.7,0.00,WSW,250,16.1,16.1,59,0.00,CLR,CLR,0.00,WeatherDisplay:10.37,2013-01-24 18:58:00,
2013-01-24 14:04:00,16.8,4.6,0.00,WNW,288,17.3,17.3,58,0.00,CLR,CLR,0.00,WeatherDisplay:10.37,2013-01-24 19:04:00,
2013-01-24 14:09:00,16.8,4.6,0.00,WNW,301,13.8,13.8,58,0.00,CLR,CLR,0.00,WeatherDisplay:10.37,2013-01-24 19:09:00,
2013-01-24 14:14:00,17.1,4.8,0.00,West,267,10.4,10.4,58,0.00,CLR,CLR,0.00,WeatherDisplay:10.37,2013-01-24 19:14:00,
2013-01-24 14:19:00,17.2,4.9,0.00,West,275,13.8,13.8,58,0.00,CLR,CLR,0.00,WeatherDisplay:10.37,2013-01-24 19:19:00,
2013-01-24 14:24:00,17.3,5.0,0.00,West,281,16.2,16.2,58,0.00,CLR,CLR,0.00,WeatherDisplay:10.37,2013-01-24 19:24:00,
2013-01-24 14:30:00,17.5,4.8,0.00,West,275,12.7,12.7,57,0.00,CLR,CLR,0.00,WeatherDisplay:10.37,2013-01-24 19:30:00,
2013-01-24 14:35:00,17.7,5.0,0.00,SW,233,21.9,21.9,57,0.00,CLR,CLR,0.00,WeatherDisplay:10.37,2013-01-24 19:35:00,
2013-01-24 14:40:00,17.8,5.1,0.00,West,263,17.3,17.3,57,0.00,CLR,CLR,0.00,WeatherDisplay:10.37,2013-01-24 19:40:00,
2013-01-24 14:45:00,17.9,5.2,0.00,West,280,17.3,17.3,57,0.00,CLR,CLR,0.00,WeatherDisplay:10.37,2013-01-24 19:45:00,
2013-01-24 14:51:00,18.0,5.3,0.00,WSW,241,12.7,12.7,57,0.00,CLR,CLR,0.00,WeatherDisplay:10.37,2013-01-24 19:51:00,
2013-01-24 14:56:00,18.1,5.4,0.00,SW,223,17.0,17.0,57,0.00,CLR,CLR,0.00,WeatherDisplay:10.37,2013-01-24 19:56:00,
2013-01-24 15:01:00,18.1,5.4,0.00,NW,305,10.4,10.4,57,0.00,CLR,CLR,0.00,WeatherDisplay:10.37,2013-01-24 20:01:00,
2013-01-24 15:06:00,18.1,5.4,0.00,West,264,20.7,20.7,57,0.00,CLR,CLR,0.00,WeatherDisplay:10.37,2013-01-24 20:06:00,
2013-01-24 15:11:00,18.1,5.4,0.00,WSW,248,15.0,15.0,57,0.00,CLR,CLR,0.00,WeatherDisplay:10.37,2013-01-24 20:11:00,
2013-01-24 15:17:00,18.1,5.0,0.00,WSW,239,19.1,19.1,56,0.00,CLR,CLR,0.00,WeatherDisplay:10.37,2013-01-24 20:17:00,
2013-01-24 15:22:00,18.3,5.2,0.00,West,270,15.0,15.0,56,0.00,CLR,CLR,0.00,WeatherDisplay:10.37,2013-01-24 20:22:00,
2013-01-24 15:27:00,18.3,5.2,0.00,WNW,291,13.8,13.8,56,0.00,CLR,CLR,0.00,WeatherDisplay:10.37,2013-01-24 20:27:00,
2013-01-24 15:33:00,18.4,5.3,0.00,West,260,9.5,9.5,56,0.00,CLR,CLR,0.00,WeatherDisplay:10.37,2013-01-24 20:33:00,
2013-01-24 15:38:00,18.5,5.4,0.00,WNW,282,15.0,15.0,56,0.00,CLR,CLR,0.00,WeatherDisplay:10.37,2013-01-24 20:38:00,
2013-01-24 15:43:00,18.6,5.5,0.00,West,275,10.4,10.4,56,0.00,CLR,CLR,0.00,WeatherDisplay:10.37,2013-01-24 20:43:00,
2013-01-24 15:48:00,18.4,4.9,0.00,WSW,250,25.3,25.3,55,0.00,CLR,CLR,0.00,WeatherDisplay:10.37,2013-01-24 20:48:00,
2013-01-24 15:54:00,18.4,4.9,0.00,WSW,250,19.6,19.6,55,0.00,CLR,CLR,0.00,WeatherDisplay:10.37,2013-01-24 20:54:00,
2013-01-24 15:59:00,18.3,4.8,0.00,West,265,10.8,10.8,55,0.00,CLR,CLR,0.00,WeatherDisplay:10.37,2013-01-24 20:59:00,
2013-01-24 16:04:00,18.4,4.9,0.00,WSW,237,9.2,9.2,55,0.00,CLR,CLR,0.00,WeatherDisplay:10.37,2013-01-24 21:04:00,
2013-01-24 16:09:00,18.4,4.9,0.00,NW,318,15.0,15.0,55,0.00,CLR,CLR,0.00,WeatherDisplay:10.37,2013-01-24 21:09:00,
2013-01-24 16:14:00,18.3,4.8,0.00,West,267,13.8,13.8,55,0.00,CLR,CLR,0.00,WeatherDisplay:10.37,2013-01-24 21:14:00,
2013-01-24 16:20:00,18.2,4.7,0.00,WNW,299,16.1,16.1,55,0.00,CLR,CLR,0.00,WeatherDisplay:10.37,2013-01-24 21:20:00,
2013-01-24 16:25:00,18.1,4.6,0.00,West,268,18.4,18.4,55,0.00,CLR,CLR,0.00,WeatherDisplay:10.37,2013-01-24 21:25:00,
2013-01-24 16:30:00,18.0,4.5,0.00,West,278,10.4,10.4,55,0.00,CLR,CLR,0.00,WeatherDisplay:10.37,2013-01-24 21:30:00,
2013-01-24 16:35:00,17.9,4.4,0.00,NW,306,11.5,11.5,55,0.00,CLR,CLR,0.00,WeatherDisplay:10.37,2013-01-24 21:35:00,
2013-01-24 16:40:00,17.8,4.3,0.00,West,281,10.4,10.4,55,0.00,CLR,CLR,0.00,WeatherDisplay:10.37,2013-01-24 21:40:00,
2013-01-24 16:46:00,17.8,4.3,0.00,SW,226,16.1,16.1,55,0.00,CLR,CLR,0.00,WeatherDisplay:10.37,2013-01-24 21:46:00,
2013-01-24 16:51:00,17.8,4.3,0.00,West,267,11.2,11.2,55,0.00,CLR,CLR,0.00,WeatherDisplay:10.37,2013-01-24 21:51:00,
2013-01-24 16:56:00,17.7,4.2,0.00,NW,311,8.2,8.2,55,0.00,CLR,CLR,0.00,WeatherDisplay:10.37,2013-01-24 21:56:00,
2013-01-24 17:02:00,17.7,4.6,0.00,WNW,282,12.7,12.7,56,0.00,CLR,CLR,0.00,WeatherDisplay:10.37,2013-01-24 22:02:00,
2013-01-24 17:07:00,17.6,4.5,0.00,WNW,289,13.8,13.8,56,0.00,CLR,CLR,0.00,WeatherDisplay:10.37,2013-01-24 22:07:00,
2013-01-24 17:12:00,17.5,4.5,0.00,WNW,288,10.4,10.4,56,0.00,CLR,CLR,0.00,WeatherDisplay:10.37,2013-01-24 22:12:00,
2013-01-24 17:17:00,17.5,4.5,0.00,NNE,14,8.1,8.1,56,0.00,CLR,CLR,0.00,WeatherDisplay:10.37,2013-01-24 22:17:00,
2013-01-24 17:22:00,17.4,4.4,0.00,WSW,258,13.8,13.8,56,0.00,CLR,CLR,0.00,WeatherDisplay:10.37,2013-01-24 22:22:00,
2013-01-24 17:27:00,17.4,4.4,0.00,West,263,10.4,10.4,56,0.00,CLR,CLR,0.00,WeatherDisplay:10.37,2013-01-24 22:27:00,
2013-01-24 17:32:00,17.3,4.3,0.00,West,270,11.5,11.5,56,0.00,CLR,CLR,0.00,WeatherDisplay:10.37,2013-01-24 22:32:00,
2013-01-24 17:37:00,17.3,4.3,0.00,WSW,241,11.5,11.5,56,0.00,CLR,CLR,0.00,WeatherDisplay:10.37,2013-01-24 22:37:00,
2013-01-24 17:42:00,17.3,4.3,0.00,WNW,287,10.4,10.4,56,0.00,CLR,CLR,0.00,WeatherDisplay:10.37,2013-01-24 22:42:00,
2013-01-24 17:48:00,17.2,4.2,0.00,WSW,250,10.4,10.4,56,0.00,CLR,CLR,0.00,WeatherDisplay:10.37,2013-01-24 22:48:00,
2013-01-24 17:53:00,17.2,4.2,0.00,WNW,302,6.9,6.9,56,0.00,CLR,CLR,0.00,WeatherDisplay:10.37,2013-01-24 22:53:00,
2013-01-24 17:58:00,17.1,4.5,0.00,West,268,12.7,12.7,57,0.00,CLR,CLR,0.00,WeatherDisplay:10.37,2013-01-24 22:58:00,
2013-01-24 18:03:00,17.1,4.5,0.00,WNW,285,11.5,11.5,57,0.00,CLR,CLR,0.00,WeatherDisplay:10.37,2013-01-24 23:03:00,
2013-01-24 18:08:00,17.1,4.5,0.00,WNW,295,12.7,12.7,57,0.00,CLR,CLR,0.00,WeatherDisplay:10.37,2013-01-24 23:08:00,
2013-01-24 18:13:00,17.0,4.4,0.00,WSW,243,16.1,16.1,57,0.00,CLR,CLR,0.00,WeatherDisplay:10.37,2013-01-24 23:13:00,
2013-01-24 18:19:00,17.0,4.4,0.00,NNW,332,10.4,10.4,57,0.00,CLR,CLR,0.00,WeatherDisplay:10.37,2013-01-24 23:19:00,
2013-01-24 18:24:00,16.9,3.9,0.00,West,274,21.9,21.9,56,0.00,CLR,CLR,0.00,WeatherDisplay:10.37,2013-01-24 23:24:00,
2013-01-24 18:29:00,16.8,3.8,0.00,WNW,291,9.2,9.2,56,0.00,CLR,CLR,0.00,WeatherDisplay:10.37,2013-01-24 23:29:00,
2013-01-24 18:35:00,16.7,3.7,0.00,WSW,248,13.8,13.8,56,0.00,CLR,CLR,0.00,WeatherDisplay:10.37,2013-01-24 23:35:00,
2013-01-24 18:40:00,16.7,3.7,0.00,WSW,251,11.5,11.5,56,0.00,CLR,CLR,0.00,WeatherDisplay:10.37,2013-01-24 23:40:00,
2013-01-24 18:45:00,16.7,3.7,0.00,SW,222,11.5,11.5,56,0.00,CLR,CLR,0.00,WeatherDisplay:10.37,2013-01-24 23:45:00,
2013-01-24 18:51:00,16.6,4.0,0.00,West,263,13.8,13.8,57,0.00,CLR,CLR,0.00,WeatherDisplay:10.37,2013-01-24 23:51:00,
2013-01-24 18:56:00,16.3,3.7,0.00,West,265,11.5,11.5,57,0.00,CLR,CLR,0.00,WeatherDisplay:10.37,2013-01-24 23:56:00,
2013-01-24 19:01:00,16.2,3.6,0.00,WSW,239,12.7,12.7,57,0.00,CLR,CLR,0.00,WeatherDisplay:10.37,2013-01-25 00:01:00,
2013-01-24 19:06:00,16.0,3.8,0.00,WNW,291,13.8,13.8,58,0.00,CLR,CLR,0.00,WeatherDisplay:10.37,2013-01-25 00:06:00,
2013-01-24 19:11:00,15.8,3.6,0.00,WSW,237,14.4,14.4,58,0.00,CLR,CLR,0.00,WeatherDisplay:10.37,2013-01-25 00:11:00,
2013-01-24 19:17:00,15.7,3.1,0.00,West,271,12.7,12.7,57,0.00,CLR,CLR,0.00,WeatherDisplay:10.37,2013-01-25 00:17:00,
2013-01-24 19:22:00,15.6,3.4,0.00,WSW,256,16.5,16.5,58,0.00,CLR,CLR,0.00,WeatherDisplay:10.37,2013-01-25 00:22:00,
2013-01-24 19:28:00,15.5,3.3,0.00,West,277,13.8,13.8,58,0.00,CLR,CLR,0.00,WeatherDisplay:10.37,2013-01-25 00:28:00,
2013-01-24 19:33:00,15.4,3.2,0.00,West,265,11.5,11.5,58,0.00,CLR,CLR,0.00,WeatherDisplay:10.37,2013-01-25 00:33:00,
2013-01-24 19:38:00,15.2,3.1,0.00,NW,306,19.6,19.6,58,0.00,CLR,CLR,0.00,WeatherDisplay:10.37,2013-01-25 00:38:00,
2013-01-24 19:43:00,15.0,2.9,0.00,WSW,254,15.0,15.0,58,0.00,CLR,CLR,0.00,WeatherDisplay:10.37,2013-01-25 00:43:00,
2013-01-24 19:49:00,15.1,3.0,0.00,West,264,7.5,9.8,58,0.00,CLR,CLR,0.00,WeatherDisplay:10.37,2013-01-25 00:49:00,
2013-01-24 19:54:00,14.9,2.8,0.00,West,277,18.4,18.4,58,0.00,CLR,CLR,0.00,WeatherDisplay:10.37,2013-01-25 00:54:00,
2013-01-24 19:59:00,14.8,2.7,0.00,WSW,253,15.0,15.0,58,0.00,CLR,CLR,0.00,WeatherDisplay:10.37,2013-01-25 00:59:00,
2013-01-24 20:05:00,14.7,2.6,0.00,West,268,9.2,9.2,58,0.00,CLR,CLR,0.00,WeatherDisplay:10.37,2013-01-25 01:05:00,
2013-01-24 20:10:00,14.6,2.5,0.00,West,261,9.2,9.2,58,0.00,CLR,CLR,0.00,WeatherDisplay:10.37,2013-01-25 01:10:00,
2013-01-24 20:15:00,14.6,2.5,0.00,West,274,15.0,15.0,58,0.00,CLR,CLR,0.00,WeatherDisplay:10.37,2013-01-25 01:15:00,
2013-01-24 20:20:00,14.5,2.4,0.00,WSW,254,15.0,15.0,58,0.00,CLR,CLR,0.00,WeatherDisplay:10.37,2013-01-25 01:20:00,
2013-01-24 20:25:00,14.5,2.4,0.00,WSW,244,17.5,17.5,58,0.00,CLR,CLR,0.00,WeatherDisplay:10.37,2013-01-25 01:25:00,
2013-01-24 20:31:00,14.5,2.4,0.00,West,264,8.6,8.6,58,0.00,CLR,CLR,0.00,WeatherDisplay:10.37,2013-01-25 01:31:00,
2013-01-24 20:36:00,14.5,2.4,0.00,WNW,295,13.8,13.8,58,0.00,CLR,CLR,0.00,WeatherDisplay:10.37,2013-01-25 01:36:00,
2013-01-24 20:41:00,14.4,2.3,0.00,WSW,248,23.0,23.0,58,0.00,CLR,CLR,0.00,WeatherDisplay:10.37,2013-01-25 01:41:00,
2013-01-24 20:46:00,14.4,2.3,0.00,West,268,7.1,7.1,58,0.00,CLR,CLR,0.00,WeatherDisplay:10.37,2013-01-25 01:46:00,
2013-01-24 20:52:00,14.3,2.2,0.00,WSW,253,9.2,9.2,58,0.00,CLR,CLR,0.00,WeatherDisplay:10.37,2013-01-25 01:52:00,
2013-01-24 20:57:00,14.2,2.1,0.00,West,261,9.8,9.8,58,0.00,CLR,CLR,0.00,WeatherDisplay:10.37,2013-01-25 01:57:00,
2013-01-24 21:02:00,14.2,2.1,0.00,SW,220,13.6,13.6,58,0.00,CLR,CLR,0.00,WeatherDisplay:10.37,2013-01-25 02:02:00,
2013-01-24 21:08:00,14.1,2.0,0.00,WNW,288,15.0,15.0,58,0.00,CLR,CLR,0.00,WeatherDisplay:10.37,2013-01-25 02:08:00,
2013-01-24 21:13:00,14.1,2.0,0.00,NW,304,18.4,18.4,58,0.00,CLR,CLR,0.00,WeatherDisplay:10.37,2013-01-25 02:13:00,
2013-01-24 21:18:00,14.0,1.9,0.00,NNE,13,10.4,10.4,58,0.00,CLR,CLR,0.00,WeatherDisplay:10.37,2013-01-25 02:18:00,
2013-01-24 21:23:00,13.9,1.8,0.00,WNW,301,20.7,20.7,58,0.00,CLR,CLR,0.00,WeatherDisplay:10.37,2013-01-25 02:23:00,
2013-01-24 21:29:00,13.8,1.7,0.00,West,271,19.6,19.6,58,0.00,CLR,CLR,0.00,WeatherDisplay:10.37,2013-01-25 02:29:00,
2013-01-24 21:34:00,13.8,1.7,0.00,South,186,13.8,13.8,58,0.00,CLR,CLR,0.00,WeatherDisplay:10.37,2013-01-25 02:34:00,
2013-01-24 21:39:00,13.7,1.6,0.00,West,264,19.6,19.6,58,0.00,CLR,CLR,0.00,WeatherDisplay:10.37,2013-01-25 02:39:00,
2013-01-24 21:45:00,13.6,1.5,0.00,WNW,284,12.7,12.7,58,0.00,CLR,CLR,0.00,WeatherDisplay:10.37,2013-01-25 02:45:00,
2013-01-24 21:50:00,13.5,1.4,0.00,WSW,256,13.8,13.8,58,0.00,CLR,CLR,0.00,WeatherDisplay:10.37,2013-01-25 02:50:00,
2013-01-24 21:55:00,13.4,1.4,0.00,West,278,16.1,16.1,58,0.00,CLR,CLR,0.00,WeatherDisplay:10.37,2013-01-25 02:55:00,
2013-01-24 22:00:00,13.4,1.4,0.00,West,274,16.1,16.1,58,0.00,CLR,CLR,0.00,WeatherDisplay:10.37,2013-01-25 03:00:00,
2013-01-24 22:06:00,13.3,1.3,0.00,NNW,342,17.3,17.3,58,0.00,CLR,CLR,0.00,WeatherDisplay:10.37,2013-01-25 03:06:00,
2013-01-24 22:11:00,13.3,1.3,0.00,WSW,258,15.0,15.0,58,0.00,CLR,CLR,0.00,WeatherDisplay:10.37,2013-01-25 03:11:00,
2013-01-24 22:16:00,13.1,1.1,0.00,West,278,7.0,23.0,58,0.00,CLR,CLR,0.00,WeatherDisplay:10.37,2013-01-25 03:16:00,
2013-01-24 22:21:00,13.1,1.1,0.00,WNW,291,13.8,13.8,58,0.00,CLR,CLR,0.00,WeatherDisplay:10.37,2013-01-25 03:21:00,
2013-01-24 22:26:00,13.0,1.0,0.00,WSW,253,13.7,13.7,58,0.00,CLR,CLR,0.00,WeatherDisplay:10.37,2013-01-25 03:26:00,
2013-01-24 22:32:00,12.9,0.9,0.00,West,267,13.8,13.8,58,0.00,CLR,CLR,0.00,WeatherDisplay:10.37,2013-01-25 03:32:00,
2013-01-24 22:37:00,12.9,0.9,0.00,NNW,332,10.7,10.7,58,0.00,CLR,CLR,0.00,WeatherDisplay:10.37,2013-01-25 03:37:00,
2013-01-24 22:42:00,12.7,0.7,0.00,West,272,14.8,14.8,58,0.00,CLR,CLR,0.00,WeatherDisplay:10.37,2013-01-25 03:42:00,
2013-01-24 22:47:00,12.7,1.1,0.00,WNW,287,11.5,11.5,59,0.00,CLR,CLR,0.00,WeatherDisplay:10.37,2013-01-25 03:47:00,
2013-01-24 22:53:00,12.7,1.1,0.00,WNW,299,17.3,17.3,59,0.00,CLR,CLR,0.00,WeatherDisplay:10.37,2013-01-25 03:53:00,
2013-01-24 22:58:00,12.6,1.0,0.00,WNW,282,9.2,9.2,59,0.00,CLR,CLR,0.00,WeatherDisplay:10.37,2013-01-25 03:58:00,
2013-01-24 23:03:00,12.5,0.9,0.00,West,272,9.2,9.2,59,0.00,CLR,CLR,0.00,WeatherDisplay:10.37,2013-01-25 04:03:00,
2013-01-24 23:08:00,12.3,0.7,0.00,NW,309,10.4,10.4,59,0.00,CLR,CLR,0.00,WeatherDisplay:10.37,2013-01-25 04:08:00,
2013-01-24 23:14:00,12.3,0.7,0.00,West,280,8.1,8.1,59,0.00,CLR,CLR,0.00,WeatherDisplay:10.37,2013-01-25 04:14:00,
2013-01-24 23:19:00,12.2,0.6,0.00,NW,315,12.7,12.7,59,0.00,CLR,CLR,0.00,WeatherDisplay:10.37,2013-01-25 04:19:00,
2013-01-24 23:24:00,12.1,0.5,0.00,WSW,257,10.2,10.2,59,0.00,CLR,CLR,0.00,WeatherDisplay:10.37,2013-01-25 04:24:00,
2013-01-24 23:30:00,12.0,0.4,0.00,NW,308,20.7,20.7,59,0.00,CLR,CLR,0.00,WeatherDisplay:10.37,2013-01-25 04:30:00,
2013-01-24 23:35:00,11.9,0.3,0.00,West,275,12.7,12.7,59,0.00,CLR,CLR,0.00,WeatherDisplay:10.37,2013-01-25 04:35:00,
2013-01-24 23:40:00,11.9,0.3,0.00,WSW,251,11.7,11.7,59,0.00,CLR,CLR,0.00,WeatherDisplay:10.37,2013-01-25 04:40:00,
2013-01-24 23:45:00,11.8,0.2,0.00,WSW,250,13.8,13.8,59,0.00,CLR,CLR,0.00,WeatherDisplay:10.37,2013-01-25 04:45:00,
2013-01-24 23:51:00,11.7,0.5,0.00,West,264,9.2,9.2,60,0.00,CLR,CLR,0.00,WeatherDisplay:10.37,2013-01-25 04:51:00,
2013-01-24 23:56:00,11.7,0.5,0.00,WNW,287,6.9,6.9,60,0.00,CLR,CLR,0.00,WeatherDisplay:10.37,2013-01-25 04:56:00,